Time;durP1;ratioP1;P1;durP2;ratioP2;P2;SDS_P1;SDS_P2;PMS_P1;PMS_P2;Temp;Humidity;BMP_temperature;BMP_pressure;BME280_temperature;BME280_humidity;BME280_pressure;Samples;Min_cycle;Max_cycle;Signal;HPM_P1;HPM_P2
2024/03/03 00:01:02;;;;;;;30.65;18.67;;;;;;;8.15;100.00;99861.47;5071221;28;20540;-77
2024/03/03 00:03:28;;;;;;;32.38;20.30;;;;;;;7.90;100.00;99864.75;5071197;28;20028;-78
2024/03/03 00:05:53;;;;;;;29.25;19.02;;;;;;;7.98;100.00;99845.16;5071154;28;20035;-78
2024/03/03 00:08:18;;;;;;;32.67;20.40;;;;;;;7.52;100.00;99851.31;5071378;28;20036;-77
2024/03/03 00:10:44;;;;;;;29.80;18.92;;;;;;;7.74;100.00;99857.22;5089020;28;20032;-78
2024/03/03 00:13:09;;;;;;;29.92;19.23;;;;;;;8.03;100.00;99875.38;5088860;28;20051;-78
2024/03/03 00:15:35;;;;;;;32.05;19.60;;;;;;;8.04;100.00;99861.06;5088994;28;20484;-78
2024/03/03 00:18:00;;;;;;;31.25;20.10;;;;;;;7.97;100.00;99872.75;5089233;28;20032;-77
2024/03/03 00:20:26;;;;;;;31.58;20.55;;;;;;;7.94;100.00;99865.19;5069860;28;20032;-77
2024/03/03 00:22:51;;;;;;;36.05;21.48;;;;;;;8.13;100.00;99858.19;5088957;28;20099;-77
2024/03/03 00:25:17;;;;;;;36.42;21.50;;;;;;;7.98;100.00;99839.84;5089174;28;20043;-77
2024/03/03 00:27:43;;;;;;;37.30;21.38;;;;;;;8.08;100.00;99856.16;5067205;28;20132;-77
2024/03/03 00:30:09;;;;;;;34.25;21.70;;;;;;;8.09;100.00;99846.34;5068727;28;20096;-77
2024/03/03 00:32:34;;;;;;;34.78;19.50;;;;;;;7.79;100.00;99836.22;5068421;28;20032;-77
2024/03/03 00:34:59;;;;;;;33.65;20.90;;;;;;;7.68;100.00;99802.31;5067308;28;20489;-77
2024/03/03 00:37:25;;;;;;;34.45;20.75;;;;;;;7.73;100.00;99810.47;5068278;28;20032;-77
2024/03/03 00:39:50;;;;;;;30.40;19.52;;;;;;;8.02;100.00;99828.59;5068715;28;20723;-78
2024/03/03 00:42:16;;;;;;;31.52;18.92;;;;;;;8.14;100.00;99839.41;5068111;28;20032;-76
2024/03/03 00:44:41;;;;;;;33.42;19.13;;;;;;;8.19;100.00;99838.75;5067420;28;20037;-77
2024/03/03 00:47:06;;;;;;;30.27;18.30;;;;;;;8.06;100.00;99826.34;5067036;28;20052;-77
2024/03/03 00:49:32;;;;;;;27.05;16.85;;;;;;;7.76;100.00;99824.13;5068625;28;20473;-77
2024/03/03 00:51:58;;;;;;;27.38;17.63;;;;;;;7.86;100.00;99834.34;5068434;28;20733;-77
2024/03/03 00:54:24;;;;;;;29.05;18.15;;;;;;;8.04;100.00;99834.50;5068219;28;20108;-77
2024/03/03 00:56:49;;;;;;;27.25;16.95;;;;;;;7.80;100.00;99813.94;5068456;28;20029;-76
2024/03/03 00:59:15;;;;;;;28.08;16.88;;;;;;;7.82;100.00;99820.66;5068684;28;20029;-77
2024/03/03 01:01:40;;;;;;;24.83;15.95;;;;;;;7.75;100.00;99819.88;5068374;28;20089;-76
2024/03/03 01:04:06;;;;;;;28.13;17.48;;;;;;;7.66;100.00;99831.69;5068257;28;20504;-76
2024/03/03 01:06:31;;;;;;;34.83;22.13;;;;;;;7.69;100.00;99827.84;5067978;28;20116;-76
2024/03/03 01:08:57;;;;;;;41.25;16.20;;;;;;;7.44;100.00;99813.34;5068666;28;20032;-77
2024/03/03 01:11:22;;;;;;;81.50;16.00;;;;;;;7.21;100.00;99824.38;5067683;28;20033;-77
2024/03/03 01:13:48;;;;;;;49.08;14.15;;;;;;;6.89;100.00;99814.53;5067592;28;20116;-76
2024/03/03 01:16:13;;;;;;;47.45;14.73;;;;;;;6.61;100.00;99812.81;5068065;28;20387;-77
2024/03/03 01:18:39;;;;;;;29.40;14.20;;;;;;;6.61;100.00;99818.94;5067767;28;20048;-76
2024/03/03 01:21:04;;;;;;;24.05;13.82;;;;;;;6.60;100.00;99816.50;5066634;28;20181;-77
2024/03/03 01:23:29;;;;;;;32.42;15.93;;;;;;;6.56;100.00;99805.47;5067696;28;20032;-77
2024/03/03 01:25:55;;;;;;;25.52;15.45;;;;;;;6.60;100.00;99804.06;5067752;28;20059;-77
2024/03/03 01:28:20;;;;;;;24.67;15.32;;;;;;;6.58;100.00;99818.53;5082049;28;20048;-76
2024/03/03 01:30:46;;;;;;;25.02;14.35;;;;;;;6.60;100.00;99811.19;5088153;28;20031;-77
2024/03/03 01:33:12;;;;;;;21.73;14.57;;;;;;;6.57;100.00;99806.28;5087870;28;20118;-77
2024/03/03 01:35:37;;;;;;;23.55;13.60;;;;;;;6.39;100.00;99815.56;5087936;28;20157;-76
2024/03/03 01:38:04;;;;;;;26.48;10.93;;;;;;;5.58;100.00;99800.25;5087403;28;20501;-77
2024/03/03 01:40:29;;;;;;;75.13;22.23;;;;;;;5.79;100.00;99817.06;5087430;28;20035;-78
2024/03/03 01:42:56;;;;;;;31.70;16.27;;;;;;;6.27;100.00;99800.47;5087742;28;20032;-77
2024/03/03 01:45:23;;;;;;;67.82;19.30;;;;;;;6.17;100.00;99817.53;5087583;28;20129;-78
2024/03/03 01:47:50;;;;;;;40.05;16.98;;;;;;;6.33;100.00;99816.38;5087699;28;20886;-77
2024/03/03 01:50:16;;;;;;;58.55;17.10;;;;;;;6.36;100.00;99825.78;5087630;28;20028;-77
2024/03/03 01:52:42;;;;;;;159.80;21.50;;;;;;;5.82;100.00;99767.22;5087942;28;20035;-78
2024/03/03 01:55:09;;;;;;;118.13;21.90;;;;;;;5.94;100.00;99811.66;5087647;28;20028;-77
2024/03/03 01:57:35;;;;;;;134.68;22.15;;;;;;;5.95;100.00;99813.34;5069028;28;20036;-77
2024/03/03 02:00:04;;;;;;;66.68;21.38;;;;;;;6.25;100.00;99787.41;5069429;28;20103;-77
2024/03/03 02:02:31;;;;;;;75.55;20.63;;;;;;;6.39;100.00;99815.56;5087408;28;20040;-78
2024/03/03 02:04:57;;;;;;;174.40;21.05;;;;;;;6.11;100.00;99812.19;5087632;28;20711;-77
2024/03/03 02:07:25;;;;;;;172.68;20.05;;;;;;;6.11;100.00;99813.03;5087410;28;20035;-77
2024/03/03 02:09:51;;;;;;;214.15;21.85;;;;;;;6.03;100.00;99799.94;5087615;28;20024;-78
2024/03/03 02:12:17;;;;;;;148.60;23.42;;;;;;;5.98;100.00;99812.94;5087098;28;20390;-77
2024/03/03 02:14:42;;;;;;;86.88;18.73;;;;;;;6.17;100.00;99822.00;5069050;28;20028;-77
2024/03/03 02:17:08;;;;;;;115.57;16.73;;;;;;;5.95;100.00;99808.88;5068819;28;20035;-77
2024/03/03 02:19:34;;;;;;;68.45;16.50;;;;;;;5.36;100.00;99819.81;5087733;28;20031;-77
2024/03/03 02:21:59;;;;;;;45.55;12.45;;;;;;;5.38;100.00;99825.72;5086939;28;20035;-78
2024/03/03 02:24:25;;;;;;;54.75;13.80;;;;;;;5.44;100.00;99835.53;5087505;28;20109;-77
2024/03/03 02:26:51;;;;;;;55.47;15.65;;;;;;;5.37;100.00;99824.91;5087282;28;20043;-78
2024/03/03 02:29:19;;;;;;;94.97;18.10;;;;;;;5.35;100.00;99805.78;5088682;28;20505;-77
2024/03/03 02:31:44;;;;;;;70.65;18.25;;;;;;;5.20;100.00;99808.47;5096521;28;20028;-77
2024/03/03 02:34:09;;;;;;;67.10;17.13;;;;;;;5.36;100.00;99835.69;5096181;28;20164;-77
2024/03/03 02:36:35;;;;;;;45.92;16.85;;;;;;;5.39;100.00;99836.13;5096417;28;20074;-77
2024/03/03 02:39:00;;;;;;;40.28;18.13;;;;;;;5.56;100.00;99826.06;5096669;28;20484;-78
2024/03/03 02:41:27;;;;;;;35.50;17.40;;;;;;;5.63;100.00;99812.88;5095471;28;20020;-77
2024/03/03 02:43:52;;;;;;;30.15;16.17;;;;;;;5.89;100.00;99840.56;5077754;28;20404;-77
2024/03/03 02:46:17;;;;;;;29.02;16.67;;;;;;;5.75;100.00;99799.94;5097035;28;20605;-77
2024/03/03 02:48:43;;;;;;;30.92;18.15;;;;;;;6.09;100.00;99835.38;5095672;28;20032;-78
2024/03/03 02:51:09;;;;;;;27.63;16.55;;;;;;;6.23;100.00;99837.09;5092508;28;20028;-78
2024/03/03 02:53:34;;;;;;;22.15;14.02;;;;;;;6.26;100.00;99841.22;5073934;28;20062;-79
2024/03/03 02:55:59;;;;;;;25.52;15.88;;;;;;;6.10;100.00;99832.56;5092051;28;20135;-78
2024/03/03 02:58:27;;;;;;;29.75;18.80;;;;;;;5.95;100.00;99840.63;5091923;28;20412;-79
2024/03/03 03:00:53;;;;;;;37.67;23.58;;;;;;;5.92;100.00;99829.56;5091992;28;20020;-79
2024/03/03 03:03:18;;;;;;;23.13;14.90;;;;;;;5.90;100.00;99842.19;5091964;28;20028;-78
2024/03/03 03:05:43;;;;;;;21.00;13.30;;;;;;;6.27;100.00;99859.53;5091834;28;20024;-79
2024/03/03 03:08:10;;;;;;;21.40;13.65;;;;;;;5.92;100.00;99829.56;5090750;28;20028;-78
2024/03/03 03:10:36;;;;;;;19.65;13.80;;;;;;;5.96;100.00;99865.25;5072171;28;20039;-79
2024/03/03 03:13:01;;;;;;;19.15;13.30;;;;;;;5.81;100.00;99857.41;5088967;28;20031;-78
2024/03/03 03:15:27;;;;;;;22.90;16.25;;;;;;;6.03;100.00;99864.28;5088560;28;20049;-78
2024/03/03 03:17:52;;;;;;;21.65;14.27;;;;;;;5.89;100.00;99845.84;5087904;28;20034;-78
2024/03/03 03:20:18;;;;;;;21.58;13.52;;;;;;;6.04;100.00;99838.63;5070094;28;20028;-78
2024/03/03 03:22:43;;;;;;;20.80;14.02;;;;;;;6.27;100.00;99845.47;5069592;28;20463;-78
2024/03/03 03:25:09;;;;;;;21.65;14.98;;;;;;;6.26;100.00;99870.34;5087259;28;20052;-78
2024/03/03 03:27:35;;;;;;;22.42;13.20;;;;;;;6.36;100.00;99878.75;5086820;28;20047;-78
2024/03/03 03:30:01;;;;;;;20.25;13.27;;;;;;;6.33;100.00;99869.34;5068801;28;20032;-77
2024/03/03 03:32:26;;;;;;;21.52;13.27;;;;;;;6.52;100.00;99869.63;5086842;28;20039;-78
2024/03/03 03:34:52;;;;;;;25.45;15.27;;;;;;;6.64;100.00;99866.25;5086610;28;20071;-77
2024/03/03 03:37:17;;;;;;;22.00;14.55;;;;;;;6.61;100.00;99876.41;5086288;28;20044;-77
2024/03/03 03:39:43;;;;;;;30.23;19.33;;;;;;;6.44;100.00;99884.69;5086618;28;20044;-77
2024/03/03 03:42:08;;;;;;;31.38;17.95;;;;;;;6.43;100.00;99883.03;5086446;28;20054;-76
2024/03/03 03:44:34;;;;;;;113.15;47.88;;;;;;;6.49;100.00;99875.34;5086375;28;20082;-76
2024/03/03 03:47:00;;;;;;;65.55;31.45;;;;;;;6.57;100.00;99886.56;5086255;28;20036;-76
2024/03/03 03:49:26;;;;;;;33.80;18.35;;;;;;;6.51;100.00;99870.66;5086158;28;20555;-77
2024/03/03 03:51:51;;;;;;;25.08;15.70;;;;;;;6.51;100.00;99884.72;5086379;28;20036;-77
2024/03/03 03:54:17;;;;;;;21.92;13.45;;;;;;;6.28;100.00;99876.25;5086280;28;20028;-77
2024/03/03 03:56:43;;;;;;;23.55;15.25;;;;;;;5.99;100.00;99871.00;5089534;28;20051;-78
2024/03/03 03:59:08;;;;;;;27.50;15.38;;;;;;;6.19;100.00;99879.06;5089163;28;20028;-77
2024/03/03 04:01:34;;;;;;;28.77;15.77;;;;;;;6.41;100.00;99885.06;5089696;28;20050;-77
2024/03/03 04:04:00;;;;;;;28.73;16.52;;;;;;;6.47;100.00;99872.88;5089211;28;20032;-78
2024/03/03 04:06:27;;;;;;;29.10;16.52;;;;;;;6.86;100.00;99897.91;5089272;28;20052;-76
2024/03/03 04:08:54;;;;;;;28.77;16.98;;;;;;;6.82;100.00;99872.81;5089482;28;20055;-77
2024/03/03 04:11:20;;;;;;;31.17;17.83;;;;;;;6.87;100.00;99881.00;5089431;28;20039;-77
2024/03/03 04:13:51;;;;;;;30.05;17.75;;;;;;;7.00;100.00;99882.88;5071294;28;20028;-77
2024/03/03 04:16:20;;;;;;;32.85;18.77;;;;;;;7.15;100.00;99888.84;5089476;28;20452;-76
2024/03/03 04:18:46;;;;;;;30.52;18.00;;;;;;;6.81;100.00;99887.91;5088699;28;20040;-76
2024/03/03 04:21:12;;;;;;;29.83;17.17;;;;;;;7.00;100.00;99882.88;5089360;28;20061;-76
2024/03/03 04:23:38;;;;;;;30.38;18.13;;;;;;;7.07;100.00;99881.06;5089162;28;20107;-77
2024/03/03 04:26:07;;;;;;;32.33;17.98;;;;;;;6.81;100.00;99876.50;5089359;28;20131;-76
2024/03/03 04:28:34;;;;;;;30.00;18.02;;;;;;;6.76;100.00;99905.41;5088577;28;20409;-76
2024/03/03 04:31:05;;;;;;;30.58;18.05;;;;;;;6.76;100.00;99908.91;5089507;28;20051;-77
2024/03/03 04:33:32;;;;;;;30.15;18.08;;;;;;;6.75;100.00;99906.44;5088775;28;20552;-76
2024/03/03 04:35:57;;;;;;;29.80;18.00;;;;;;;6.78;100.00;99916.63;5076228;28;20038;-77
2024/03/03 04:38:23;;;;;;;56.28;28.92;;;;;;;6.72;100.00;99899.72;5088377;28;20111;-76
2024/03/03 04:40:48;;;;;;;40.00;23.45;;;;;;;6.78;100.00;99879.53;5088866;28;20032;-77
2024/03/03 04:43:14;;;;;;;53.25;35.95;;;;;;;6.85;100.00;99906.88;5088638;28;20028;-77
2024/03/03 04:45:39;;;;;;;137.00;91.47;;;;;;;7.10;100.00;99915.13;5088087;28;20024;-76
2024/03/03 04:48:05;;;;;;;46.03;31.17;;;;;;;6.99;100.00;99899.81;5088811;28;20016;-77
2024/03/03 04:50:31;;;;;;;42.90;30.42;;;;;;;7.35;100.00;99917.22;5088686;28;20116;-77
2024/03/03 04:52:56;;;;;;;39.25;25.90;;;;;;;7.53;100.00;99929.91;5088554;28;20559;-77
2024/03/03 04:55:21;;;;;;;42.15;23.67;;;;;;;7.20;100.00;99902.28;5088445;28;20032;-77
2024/03/03 04:57:47;;;;;;;41.08;23.45;;;;;;;7.03;100.00;99917.75;5088322;28;20031;-77
2024/03/03 05:00:14;;;;;;;47.67;30.83;;;;;;;7.08;100.00;99917.16;5088196;28;20471;-77
2024/03/03 05:02:39;;;;;;;53.05;34.58;;;;;;;7.35;100.00;99925.19;5069935;28;20070;-77
2024/03/03 05:05:06;;;;;;;42.72;25.60;;;;;;;7.44;100.00;99913.38;5088248;28;20036;-78
2024/03/03 05:07:33;;;;;;;38.80;22.92;;;;;;;7.43;100.00;99930.28;5087427;28;20111;-75
2024/03/03 05:09:58;;;;;;;31.77;19.40;;;;;;;7.48;100.00;99909.28;5088324;28;20036;-77
2024/03/03 05:12:24;;;;;;;39.20;21.73;;;;;;;7.27;100.00;99906.78;5087992;28;20032;-77
2024/03/03 05:14:49;;;;;;;43.08;25.27;;;;;;;7.41;100.00;99919.06;5087863;28;20034;-77
2024/03/03 05:17:15;;;;;;;44.17;26.02;;;;;;;7.40;100.00;99912.94;5087639;28;20540;-77
2024/03/03 05:19:40;;;;;;;42.50;26.00;;;;;;;7.54;100.00;99923.56;5087750;28;20520;-77
2024/03/03 05:22:06;;;;;;;43.08;26.33;;;;;;;7.58;100.00;99922.13;5088098;28;20032;-77
2024/03/03 05:24:31;;;;;;;44.13;28.48;;;;;;;7.12;100.00;99902.47;5087872;28;20029;-78
2024/03/03 05:26:57;;;;;;;47.85;29.50;;;;;;;7.43;100.00;99930.28;5087720;28;20028;-76
2024/03/03 05:29:22;;;;;;;43.95;30.13;;;;;;;7.49;100.00;99926.03;5069362;28;20127;-77
2024/03/03 05:31:48;;;;;;;43.63;28.98;;;;;;;7.68;100.00;99927.88;5087848;28;20469;-77
2024/03/03 05:34:13;;;;;;;48.63;30.08;;;;;;;7.80;100.00;99938.69;5087243;28;20039;-76
2024/03/03 05:36:40;;;;;;;44.60;29.38;;;;;;;7.75;100.00;99930.53;5087594;28;20024;-77
2024/03/03 05:39:06;;;;;;;48.20;30.25;;;;;;;7.62;100.00;99940.13;5087495;28;20024;-77
2024/03/03 05:41:31;;;;;;;45.22;27.98;;;;;;;7.49;100.00;99916.22;5087815;28;20085;-77
2024/03/03 05:43:57;;;;;;;69.85;45.50;;;;;;;7.64;100.00;99935.44;5087994;28;20032;-77
2024/03/03 05:46:22;;;;;;;55.65;36.33;;;;;;;7.63;100.00;99931.13;5087320;28;20110;-77
2024/03/03 05:48:47;;;;;;;46.55;28.13;;;;;;;7.64;100.00;99914.22;5087194;28;20093;-77
2024/03/03 05:51:13;;;;;;;63.53;34.67;;;;;;;7.64;100.00;99919.50;5087519;28;20031;-77
2024/03/03 05:53:38;;;;;;;89.95;50.40;;;;;;;7.56;100.00;99938.28;5087081;28;20401;-76
2024/03/03 05:56:05;;;;;;;95.50;57.88;;;;;;;7.50;100.00;99923.19;5087009;28;20039;-76
2024/03/03 05:58:30;;;;;;;75.82;47.42;;;;;;;7.46;100.00;99900.72;5069281;28;20560;-77
2024/03/03 06:00:56;;;;;;;76.85;42.85;;;;;;;7.60;100.00;99926.25;5087403;28;20130;-77
2024/03/03 06:03:21;;;;;;;59.60;33.67;;;;;;;7.60;100.00;99920.94;5069022;28;20028;-76
2024/03/03 06:05:47;;;;;;;51.05;31.02;;;;;;;7.71;100.00;99937.28;5087052;28;20602;-78
2024/03/03 06:08:16;;;;;;;43.45;26.95;;;;;;;7.67;100.00;99914.81;5087300;28;20031;-78
2024/03/03 06:10:41;;;;;;;51.03;28.83;;;;;;;7.93;100.00;99933.41;5087096;28;20046;-77
2024/03/03 06:13:07;;;;;;;58.83;31.85;;;;;;;7.82;100.00;99904.81;5087108;28;20023;-76
2024/03/03 06:15:32;;;;;;;69.95;34.58;;;;;;;8.05;100.00;99937.06;5086904;28;20031;-77
2024/03/03 06:17:57;;;;;;;92.97;45.28;;;;;;;8.15;100.00;99935.81;5086483;28;20024;-76
2024/03/03 06:20:23;;;;;;;186.10;100.45;;;;;;;8.27;100.00;99955.44;5086045;28;20119;-78
2024/03/03 06:22:48;;;;;;;109.72;55.75;;;;;;;8.03;100.00;99930.34;5086684;28;20051;-77
2024/03/03 06:25:14;;;;;;;173.68;96.15;;;;;;;8.22;100.00;99937.47;5068663;28;20067;-77
2024/03/03 06:27:39;;;;;;;651.20;395.63;;;;;;;8.40;100.00;99944.81;5086256;28;20075;-76
2024/03/03 06:30:08;;;;;;;431.40;247.50;;;;;;;8.38;100.00;99938.06;5086604;28;20069;-75
2024/03/03 06:32:33;;;;;;;105.15;62.47;;;;;;;8.45;100.00;99952.16;5086853;28;20067;-77
2024/03/03 06:34:59;;;;;;;168.60;115.75;;;;;;;8.49;100.00;99948.06;5086133;28;20024;-76
2024/03/03 06:37:24;;;;;;;131.05;89.13;;;;;;;8.73;100.00;99954.56;5086270;28;20564;-77
2024/03/03 06:39:50;;;;;;;107.93;70.47;;;;;;;8.74;100.00;99958.03;5068119;28;20035;-78
2024/03/03 06:42:16;;;;;;;82.50;52.95;;;;;;;8.49;100.00;99957.91;5068324;28;20035;-78
2024/03/03 06:44:42;;;;;;;79.97;46.38;;;;;;;8.27;100.00;99934.19;5086427;28;20036;-76
2024/03/03 06:47:07;;;;;;;81.07;46.63;;;;;;;8.51;100.00;99945.22;5086592;28;20040;-77
2024/03/03 06:49:33;;;;;;;80.13;47.20;;;;;;;8.72;100.00;99944.94;5086298;28;20024;-77
2024/03/03 06:51:58;;;;;;;78.82;41.03;;;;;;;8.90;100.00;99956.75;5086311;28;20038;-77
2024/03/03 06:54:23;;;;;;;74.38;43.83;;;;;;;8.73;100.00;99941.28;5086586;28;20024;-77
2024/03/03 06:56:49;;;;;;;74.28;38.75;;;;;;;8.83;100.00;99952.28;5086205;28;20115;-77
2024/03/03 06:59:14;;;;;;;64.13;36.08;;;;;;;8.80;100.00;99950.03;5068234;28;20126;-76
2024/03/03 07:01:40;;;;;;;70.47;40.45;;;;;;;8.90;100.00;99954.09;5085991;28;20177;-77
2024/03/03 07:06:50;;;;;;;67.90;33.45;;;;;;;8.80;100.00;99949.22;5085870;28;20085;-77
2024/03/03 07:09:18;;;;;;;58.75;32.67;;;;;;;8.92;100.00;99973.31;5074481;28;20575;-77
2024/03/03 07:11:43;;;;;;;67.13;38.15;;;;;;;8.84;100.00;99961.88;5085871;28;20028;-77
2024/03/03 07:14:09;;;;;;;60.13;31.75;;;;;;;8.87;100.00;99971.28;5086296;28;20768;-77
2024/03/03 07:16:34;;;;;;;63.33;32.60;;;;;;;8.92;100.00;99954.69;5085952;28;20119;-77
2024/03/03 07:18:59;;;;;;;61.83;37.72;;;;;;;9.17;100.00;99976.88;5085837;28;20519;-77
2024/03/03 07:21:25;;;;;;;50.83;26.95;;;;;;;9.27;100.00;99970.31;5086297;28;20039;-77
2024/03/03 07:23:50;;;;;;;46.03;23.15;;;;;;;9.02;100.00;99971.84;5067933;28;20032;-77
2024/03/03 07:26:16;;;;;;;52.50;24.38;;;;;;;8.80;100.00;99963.31;5086193;28;20028;-77
2024/03/03 07:28:41;;;;;;;61.92;33.97;;;;;;;9.20;100.00;99986.31;5070181;28;20074;-77
2024/03/03 07:31:07;;;;;;;44.97;22.73;;;;;;;8.98;100.00;99973.28;5088399;28;20024;-77
2024/03/03 07:33:32;;;;;;;47.10;23.55;;;;;;;8.84;100.00;99985.81;5079080;28;20027;-76
2024/03/03 07:35:57;;;;;;;46.92;20.88;;;;;;;8.97;100.00;99992.09;5089421;28;20592;-77
2024/03/03 07:38:23;;;;;;;49.08;24.25;;;;;;;9.18;100.00;99993.69;5088870;28;20027;-75
2024/03/03 07:40:48;;;;;;;48.08;23.48;;;;;;;8.89;100.00;99969.25;5089461;28;20549;-76
2024/03/03 07:43:14;;;;;;;42.67;20.20;;;;;;;8.92;100.00;99989.28;5078711;28;20051;-76
2024/03/03 07:45:40;;;;;;;46.92;23.20;;;;;;;9.10;100.00;99985.94;5077641;28;20488;-76
2024/03/03 07:48:06;;;;;;;42.47;20.30;;;;;;;8.91;100.00;99971.66;5089068;28;20043;-77
2024/03/03 07:50:31;;;;;;;50.67;24.58;;;;;;;8.98;100.00;99967.16;5088989;28;20052;-77
2024/03/03 07:52:57;;;;;;;50.00;25.45;;;;;;;8.89;100.00;99957.75;5089106;28;20024;-77
2024/03/03 07:55:22;;;;;;;45.10;22.05;;;;;;;9.22;100.00;99958.44;5089008;28;20453;-76
2024/03/03 07:57:48;;;;;;;50.97;24.35;;;;;;;9.04;100.00;99977.75;5080241;28;20055;-77
2024/03/03 08:00:14;;;;;;;47.08;22.70;;;;;;;9.16;100.00;99969.94;5078578;28;20059;-77
2024/03/03 08:02:39;;;;;;;49.67;24.50;;;;;;;9.33;100.00;99985.41;5086595;28;20020;-77
2024/03/03 08:05:05;;;;;;;58.10;27.45;;;;;;;9.34;100.00;99993.19;5089100;28;20027;-77
2024/03/03 08:07:30;;;;;;;67.18;30.58;;;;;;;9.41;100.00;99987.84;5078112;28;20454;-77
2024/03/03 08:09:56;;;;;;;49.30;23.80;;;;;;;9.40;100.00;99983.56;5088629;28;20031;-77
2024/03/03 08:12:23;;;;;;;52.90;26.20;;;;;;;9.49;100.00;99989.44;5088724;28;20038;-76
2024/03/03 08:14:48;;;;;;;53.47;24.85;;;;;;;9.39;100.00;99984.56;5089230;28;20597;-77
2024/03/03 08:17:14;;;;;;;52.70;23.08;;;;;;;9.55;100.00;99994.72;5079001;28;20032;-78
2024/03/03 08:19:39;;;;;;;51.40;24.77;;;;;;;9.71;100.00;99993.41;5088423;28;20039;-76
2024/03/03 08:22:04;;;;;;;55.28;29.23;;;;;;;9.68;100.00;99993.00;5071108;28;20073;-76
2024/03/03 08:24:32;;;;;;;58.75;32.38;;;;;;;9.65;100.00;100000.38;5076148;28;20131;-77
2024/03/03 08:26:57;;;;;;;51.45;27.73;;;;;;;9.65;100.00;99987.06;5076189;28;20016;-77
2024/03/03 08:29:23;;;;;;;51.03;26.08;;;;;;;9.69;100.00;99997.31;5081971;28;20039;-77
2024/03/03 08:31:48;;;;;;;82.57;46.08;;;;;;;9.86;100.00;99987.75;5070188;28;20032;-77
2024/03/03 08:34:13;;;;;;;71.25;37.45;;;;;;;9.89;100.00;99995.34;5088717;28;20024;-77
2024/03/03 08:36:39;;;;;;;50.15;28.85;;;;;;;9.86;100.00;99991.22;5088651;28;20087;-77
2024/03/03 08:39:05;;;;;;;40.13;23.33;;;;;;;9.90;100.00;99959.66;5088774;28;20430;-76
2024/03/03 08:41:32;;;;;;;44.33;24.52;;;;;;;9.73;100.00;99974.53;5075755;28;20040;-76
2024/03/03 08:43:58;;;;;;;52.95;34.55;;;;;;;9.94;100.00;99987.50;5079050;28;20482;-76
2024/03/03 08:46:24;;;;;;;37.40;18.15;;;;;;;9.62;100.00;99984.03;5088038;28;20032;-78
2024/03/03 08:48:49;;;;;;;36.10;17.85;;;;;;;9.67;100.00;99996.72;5078198;28;20035;-77
2024/03/03 08:51:14;;;;;;;39.45;19.08;;;;;;;9.70;100.00;99985.63;5087929;28;20224;-76
2024/03/03 08:53:40;;;;;;;35.20;18.35;;;;;;;9.69;100.00;99978.66;5085113;28;20028;-76
2024/03/03 08:56:06;;;;;;;50.22;25.70;;;;;;;9.79;100.00;100008.31;5084271;28;20788;-77
2024/03/03 08:58:32;;;;;;;41.38;22.73;;;;;;;10.01;100.00;99982.94;5083582;28;20020;-77
2024/03/03 09:00:57;;;;;;;38.60;19.17;;;;;;;10.18;100.00;99993.06;5082833;28;20032;-77
2024/03/03 09:03:23;;;;;;;38.85;19.15;;;;;;;10.02;100.00;99973.91;5082769;28;20085;-77
2024/03/03 09:05:48;;;;;;;45.75;27.17;;;;;;;10.47;100.00;99980.13;5079415;28;20115;-76
2024/03/03 09:08:13;;;;;;;59.55;39.83;;;;;;;10.55;100.00;99961.16;5078773;28;20020;-76
2024/03/03 09:10:39;;;;;;;42.78;22.45;;;;;;;10.70;100.00;99982.94;5084962;28;20028;-78
2024/03/03 09:13:04;;;;;;;41.15;24.63;;;;;;;10.86;100.00;99984.22;5070060;28;20035;-77
2024/03/03 09:15:30;;;;;;;37.75;20.92;;;;;;;10.99;100.00;99996.56;5088117;28;20089;-77
2024/03/03 09:17:56;;;;;;;37.50;19.17;;;;;;;11.20;100.00;99996.13;5087261;28;20081;-77
2024/03/03 09:20:21;;;;;;;37.38;20.15;;;;;;;11.13;100.00;99986.56;5087299;28;20093;-77
2024/03/03 09:22:47;;;;;;;38.85;20.05;;;;;;;11.11;100.00;99988.63;5087704;28;20028;-77
2024/03/03 09:25:12;;;;;;;34.80;19.65;;;;;;;11.21;100.00;99992.41;5087666;28;20085;-77
2024/03/03 09:27:38;;;;;;;37.97;20.70;;;;;;;11.30;100.00;99978.75;5087766;28;20043;-76
2024/03/03 09:30:04;;;;;;;33.28;18.58;;;;;;;11.19;100.00;99991.00;5087624;28;20028;-76
2024/03/03 09:32:30;;;;;;;43.38;22.40;;;;;;;11.53;100.00;99994.88;5085992;28;20124;-76
2024/03/03 09:34:55;;;;;;;35.65;19.88;;;;;;;11.72;100.00;99984.13;5077392;28;20111;-77
2024/03/03 09:37:22;;;;;;;33.72;19.05;;;;;;;11.32;100.00;99979.34;5078875;28;20111;-75
2024/03/03 09:39:47;;;;;;;30.67;17.70;;;;;;;11.27;100.00;99980.81;5077403;28;20024;-77
2024/03/03 09:42:14;;;;;;;34.67;19.52;;;;;;;11.90;100.00;99969.91;5069207;28;20420;-76
2024/03/03 09:44:43;;;;;;;35.17;21.20;;;;;;;11.93;100.00;99986.31;5080972;28;20029;-76
2024/03/03 09:47:11;;;;;;;38.33;20.95;;;;;;;11.78;100.00;99985.88;5080706;28;20469;-76
2024/03/03 09:49:42;;;;;;;34.55;20.17;;;;;;;12.02;100.00;99965.41;5087203;28;20500;-77
2024/03/03 09:52:12;;;;;;;39.53;23.42;;;;;;;12.52;100.00;99980.16;5087693;28;20043;-76
2024/03/03 09:54:39;;;;;;;33.40;19.48;;;;;;;12.55;100.00;99993.09;5082145;28;20020;-76
2024/03/03 09:57:11;;;;;;;34.28;19.73;;;;;;;12.73;100.00;99984.94;5069118;28;20032;-77
2024/03/03 09:59:38;;;;;;;39.60;22.77;;;;;;;12.96;100.00;99981.41;5086577;28;20020;-77
2024/03/03 10:02:09;;;;;;;33.00;20.20;;;;;;;13.02;100.00;99979.63;5086375;28;20024;-77
2024/03/03 10:04:37;;;;;;;33.95;18.75;;;;;;;13.25;100.00;99973.38;5086153;28;20051;-77
2024/03/03 10:07:07;;;;;;;36.00;20.95;;;;;;;13.52;100.00;99972.84;5069003;28;20035;-78
2024/03/03 10:09:34;;;;;;;34.20;19.30;;;;;;;13.83;100.00;99980.38;5086919;28;20031;-76
2024/03/03 10:12:01;;;;;;;30.40;19.05;;;;;;;14.01;100.00;99982.00;5086037;28;20031;-77
2024/03/03 10:14:28;;;;;;;32.45;20.20;;;;;;;14.07;100.00;99972.97;5072863;28;20755;-76
2024/03/03 10:16:53;;;;;;;32.92;19.30;;;;;;;14.57;100.00;99983.94;5083599;28;20536;-77
2024/03/03 10:19:19;;;;;;;30.10;18.73;;;;;;;15.05;100.00;99977.03;5068498;28;20508;-76
2024/03/03 10:21:47;;;;;;;30.10;18.52;;;;;;;14.76;100.00;99976.41;5087111;28;20398;-77
2024/03/03 10:24:19;;;;;;;;;;;;;;;14.75;100.00;99975.59;5087475;28;20024;-77
2024/03/03 10:26:44;;;;;;;30.65;19.42;;;;;;;14.84;100.00;99941.88;5086468;28;19923;-78
2024/03/03 10:29:10;;;;;;;29.13;18.30;;;;;;;15.32;100.00;99958.25;5068812;28;20114;-76
2024/03/03 10:31:35;;;;;;;31.92;20.90;;;;;;;14.82;100.00;99965.47;5086642;28;20032;-77
2024/03/03 10:34:01;;;;;;;30.15;18.30;;;;;;;14.60;100.00;99957.41;5086586;28;20026;-76
2024/03/03 10:36:28;;;;;;;31.98;18.80;;;;;;;14.60;100.00;99961.97;5086874;28;20496;-78
2024/03/03 10:38:54;;;;;;;26.85;18.00;;;;;;;14.54;100.00;99946.81;5068078;28;20031;-76
2024/03/03 10:41:19;;;;;;;31.27;22.92;;;;;;;14.60;100.00;99945.88;5086342;28;20085;-78
2024/03/03 10:43:45;;;;;;;62.47;55.95;;;;;;;14.47;100.00;99942.44;5068406;28;20024;-77
2024/03/03 10:46:10;;;;;;;34.47;25.27;;;;;;;14.47;100.00;99937.09;5086662;28;20028;-77
2024/03/03 10:48:36;;;;;;;25.67;18.50;;;;;;;14.18;100.00;99936.41;5086425;28;20417;-76
2024/03/03 10:51:02;;;;;;;29.83;20.00;;;;;;;13.97;100.00;99915.69;5085830;28;20081;-77
2024/03/03 10:53:27;;;;;;;28.80;19.40;;;;;;;14.15;100.00;99933.41;5068349;28;20036;-77
2024/03/03 10:55:54;;;;;;;40.75;35.22;;;;;;;13.44;100.00;99918.63;5086480;28;20481;-76
2024/03/03 10:58:21;;;;;;;35.08;21.80;;;;;;;13.20;100.00;99939.31;5102380;28;20683;-76
2024/03/03 11:00:48;;;;;;;33.30;21.77;;;;;;;13.57;100.00;99914.81;5085853;28;20044;-77
2024/03/03 11:03:15;;;;;;;29.10;20.98;;;;;;;13.96;100.00;99903.38;5068139;28;20268;-77
2024/03/03 11:05:42;;;;;;;28.33;18.17;;;;;;;13.95;100.00;99923.97;5065456;28;20024;-77
2024/03/03 11:08:10;;;;;;;30.35;21.20;;;;;;;13.85;100.00;99913.09;5090421;28;20086;-76
2024/03/03 11:10:36;;;;;;;49.60;44.25;;;;;;;13.83;100.00;99924.09;5089854;28;20113;-77